sensor_id;sensor_type;location;lat;lon;timestamp;temperature;humidity
67890;DHT22;54685;52.082;5.426;2023-04-03T00:02:03;4.50;99.90
67890;DHT22;54685;52.082;5.426;2023-04-03T00:04:30;4.40;99.90
67890;DHT22;54685;52.082;5.426;2023-04-03T00:06:58;4.40;99.90
67890;DHT22;54685;52.082;5.426;2023-04-03T00:09:25;4.40;99.90
67890;DHT22;54685;52.082;5.426;2023-04-03T00:11:52;4.30;99.90
67890;DHT22;54685;52.082;5.426;2023-04-03T00:14:18;4.30;99.90
67890;DHT22;54685;52.082;5.426;2023-04-03T00:16:46;4.30;99.90
67890;DHT22;54685;52.082;5.426;2023-04-03T00:19:13;4.30;99.90
67890;DHT22;54685;52.082;5.426;2023-04-03T00:21:40;4.30;99.90
67890;DHT22;54685;52.082;5.426;2023-04-03T00:24:07;4.30;99.90
67890;DHT22;54685;52.082;5.426;2023-04-03T00:26:33;4.30;99.90
67890;DHT22;54685;52.082;5.426;2023-04-03T00:29:00;4.30;99.90
67890;DHT22;54685;52.082;5.426;2023-04-03T00:31:27;4.20;99.90
67890;DHT22;54685;52.082;5.426;2023-04-03T00:33:54;4.20;99.90
67890;DHT22;54685;52.082;5.426;2023-04-03T00:36:22;4.20;99.90
67890;DHT22;54685;52.082;5.426;2023-04-03T00:38:49;4.20;99.90
67890;DHT22;54685;52.082;5.426;2023-04-03T00:41:15;4.20;99.90
67890;DHT22;54685;52.082;5.426;2023-04-03T00:43:44;4.20;99.90
67890;DHT22;54685;52.082;5.426;2023-04-03T00:46:11;4.20;99.90
67890;DHT22;54685;52.082;5.426;2023-04-03T00:48:46;4.10;99.90
67890;DHT22;54685;52.082;5.426;2023-04-03T00:51:24;4.10;99.90
67890;DHT22;54685;52.082;5.426;2023-04-03T00:53:59;4.10;99.90
67890;DHT22;54685;52.082;5.426;2023-04-03T00:56:28;4.10;99.90
67890;DHT22;54685;52.082;5.426;2023-04-03T00:59:12;4.00;99.90
67890;DHT22;54685;52.082;5.426;2023-04-03T01:01:40;4.10;99.90
67890;DHT22;54685;52.082;5.426;2023-04-03T01:04:43;4.10;99.90
67890;DHT22;54685;52.082;5.426;2023-04-03T01:07:17;3.90;99.90
67890;DHT22;54685;52.082;5.426;2023-04-03T01:09:46;3.90;99.90
67890;DHT22;54685;52.082;5.426;2023-04-03T01:14:52;3.80;99.90
67890;DHT22;54685;52.082;5.426;2023-04-03T01:17:58;3.80;99.90
67890;DHT22;54685;52.082;5.426;2023-04-03T01:25:48;3.70;99.90
67890;DHT22;54685;52.082;5.426;2023-04-03T01:28:19;3.70;99.90
67890;DHT22;54685;52.082;5.426;2023-04-03T01:33:25;3.60;99.90
67890;DHT22;54685;52.082;5.426;2023-04-03T01:35:52;3.60;99.90
67890;DHT22;54685;52.082;5.426;2023-04-03T01:38:19;3.60;99.90
67890;DHT22;54685;52.082;5.426;2023-04-03T01:40:46;3.50;99.90
67890;DHT22;54685;52.082;5.426;2023-04-03T01:43:13;3.50;99.90
67890;DHT22;54685;52.082;5.426;2023-04-03T01:45:40;3.40;99.90
67890;DHT22;54685;52.082;5.426;2023-04-03T01:48:07;3.50;99.90
67890;DHT22;54685;52.082;5.426;2023-04-03T01:50:34;3.40;99.90
67890;DHT22;54685;52.082;5.426;2023-04-03T01:53:01;3.40;99.90
67890;DHT22;54685;52.082;5.426;2023-04-03T01:55:28;3.40;99.90
67890;DHT22;54685;52.082;5.426;2023-04-03T01:57:55;3.40;99.90
67890;DHT22;54685;52.082;5.426;2023-04-03T02:00:23;3.30;99.90
67890;DHT22;54685;52.082;5.426;2023-04-03T02:02:50;3.40;99.90
67890;DHT22;54685;52.082;5.426;2023-04-03T02:05:17;3.40;99.90
67890;DHT22;54685;52.082;5.426;2023-04-03T02:07:43;3.40;99.90
67890;DHT22;54685;52.082;5.426;2023-04-03T02:10:10;3.40;99.90
67890;DHT22;54685;52.082;5.426;2023-04-03T02:12:37;3.40;99.90
67890;DHT22;54685;52.082;5.426;2023-04-03T02:15:05;3.40;99.90
67890;DHT22;54685;52.082;5.426;2023-04-03T02:17:32;3.40;99.90
67890;DHT22;54685;52.082;5.426;2023-04-03T02:19:58;3.30;99.90
67890;DHT22;54685;52.082;5.426;2023-04-03T02:22:26;3.30;99.90
67890;DHT22;54685;52.082;5.426;2023-04-03T02:24:52;3.30;99.90
67890;DHT22;54685;52.082;5.426;2023-04-03T02:27:19;3.30;99.90
67890;DHT22;54685;52.082;5.426;2023-04-03T02:29:47;3.20;99.90
67890;DHT22;54685;52.082;5.426;2023-04-03T02:32:14;3.20;99.90
67890;DHT22;54685;52.082;5.426;2023-04-03T02:34:45;3.20;99.90
67890;DHT22;54685;52.082;5.426;2023-04-03T02:37:13;3.20;99.90
67890;DHT22;54685;52.082;5.426;2023-04-03T02:39:40;3.20;99.90
67890;DHT22;54685;52.082;5.426;2023-04-03T02:42:07;3.20;99.90
67890;DHT22;54685;52.082;5.426;2023-04-03T02:44:35;3.10;99.90
67890;DHT22;54685;52.082;5.426;2023-04-03T02:47:02;3.20;99.90
67890;DHT22;54685;52.082;5.426;2023-04-03T02:49:29;3.10;99.90
67890;DHT22;54685;52.082;5.426;2023-04-03T02:51:56;3.10;99.90
67890;DHT22;54685;52.082;5.426;2023-04-03T02:54:23;3.00;99.90
67890;DHT22;54685;52.082;5.426;2023-04-03T02:56:57;3.00;99.90
67890;DHT22;54685;52.082;5.426;2023-04-03T02:59:24;3.00;99.90
67890;DHT22;54685;52.082;5.426;2023-04-03T03:01:51;3.00;99.90
67890;DHT22;54685;52.082;5.426;2023-04-03T03:04:18;2.90;99.90
67890;DHT22;54685;52.082;5.426;2023-04-03T03:06:45;2.90;99.90
67890;DHT22;54685;52.082;5.426;2023-04-03T03:09:14;2.80;99.90
67890;DHT22;54685;52.082;5.426;2023-04-03T03:11:41;2.80;99.90
67890;DHT22;54685;52.082;5.426;2023-04-03T03:14:08;2.80;99.90
67890;DHT22;54685;52.082;5.426;2023-04-03T03:16:35;2.70;99.90
67890;DHT22;54685;52.082;5.426;2023-04-03T03:19:02;2.70;99.90
67890;DHT22;54685;52.082;5.426;2023-04-03T03:21:29;2.60;99.90
67890;DHT22;54685;52.082;5.426;2023-04-03T03:23:56;2.60;99.90
67890;DHT22;54685;52.082;5.426;2023-04-03T03:26:23;2.60;99.90
67890;DHT22;54685;52.082;5.426;2023-04-03T03:28:50;2.60;99.90
67890;DHT22;54685;52.082;5.426;2023-04-03T03:31:17;2.50;99.90
67890;DHT22;54685;52.082;5.426;2023-04-03T03:33:44;2.50;99.90
67890;DHT22;54685;52.082;5.426;2023-04-03T03:36:11;2.50;99.90
67890;DHT22;54685;52.082;5.426;2023-04-03T03:38:38;2.60;99.90
67890;DHT22;54685;52.082;5.426;2023-04-03T03:41:05;2.50;99.90
67890;DHT22;54685;52.082;5.426;2023-04-03T03:43:33;2.50;99.90
67890;DHT22;54685;52.082;5.426;2023-04-03T03:46:01;2.40;99.90
67890;DHT22;54685;52.082;5.426;2023-04-03T03:48:28;2.40;99.90
67890;DHT22;54685;52.082;5.426;2023-04-03T03:50:55;2.40;99.90
67890;DHT22;54685;52.082;5.426;2023-04-03T03:53:26;2.30;99.90
67890;DHT22;54685;52.082;5.426;2023-04-03T03:55:57;2.30;99.90
67890;DHT22;54685;52.082;5.426;2023-04-03T03:58:26;2.30;99.90
67890;DHT22;54685;52.082;5.426;2023-04-03T04:00:53;2.20;99.90
67890;DHT22;54685;52.082;5.426;2023-04-03T04:03:20;2.20;99.90
67890;DHT22;54685;52.082;5.426;2023-04-03T04:05:48;2.20;99.90
67890;DHT22;54685;52.082;5.426;2023-04-03T04:08:15;2.20;99.90
67890;DHT22;54685;52.082;5.426;2023-04-03T04:10:44;2.20;99.90
67890;DHT22;54685;52.082;5.426;2023-04-03T04:13:13;2.20;99.90
67890;DHT22;54685;52.082;5.426;2023-04-03T04:15:40;2.20;99.90
67890;DHT22;54685;52.082;5.426;2023-04-03T04:18:07;2.20;99.90
67890;DHT22;54685;52.082;5.426;2023-04-03T04:20:34;2.20;99.90
67890;DHT22;54685;52.082;5.426;2023-04-03T04:23:01;2.20;99.90
67890;DHT22;54685;52.082;5.426;2023-04-03T04:25:29;2.20;99.90
67890;DHT22;54685;52.082;5.426;2023-04-03T04:27:56;2.20;99.90
67890;DHT22;54685;52.082;5.426;2023-04-03T04:30:24;2.20;99.90
67890;DHT22;54685;52.082;5.426;2023-04-03T04:32:51;2.20;99.90
67890;DHT22;54685;52.082;5.426;2023-04-03T04:35:18;2.10;99.90
67890;DHT22;54685;52.082;5.426;2023-04-03T04:37:47;2.20;99.90
67890;DHT22;54685;52.082;5.426;2023-04-03T04:40:15;2.20;99.90
67890;DHT22;54685;52.082;5.426;2023-04-03T04:42:42;2.10;99.90
67890;DHT22;54685;52.082;5.426;2023-04-03T04:45:10;2.00;99.90
67890;DHT22;54685;52.082;5.426;2023-04-03T04:47:38;2.10;99.90
67890;DHT22;54685;52.082;5.426;2023-04-03T04:50:06;2.10;99.90
67890;DHT22;54685;52.082;5.426;2023-04-03T04:52:33;2.00;99.90
67890;DHT22;54685;52.082;5.426;2023-04-03T04:55:00;1.90;99.90
67890;DHT22;54685;52.082;5.426;2023-04-03T04:57:27;1.90;99.90
67890;DHT22;54685;52.082;5.426;2023-04-03T04:59:56;1.90;99.90
67890;DHT22;54685;52.082;5.426;2023-04-03T05:02:23;1.90;99.90
67890;DHT22;54685;52.082;5.426;2023-04-03T05:04:50;1.90;99.90
67890;DHT22;54685;52.082;5.426;2023-04-03T05:07:23;1.90;99.90
67890;DHT22;54685;52.082;5.426;2023-04-03T05:09:51;1.90;99.90
67890;DHT22;54685;52.082;5.426;2023-04-03T05:12:18;1.90;99.90
67890;DHT22;54685;52.082;5.426;2023-04-03T05:14:51;1.80;99.90
67890;DHT22;54685;52.082;5.426;2023-04-03T05:17:18;1.90;99.90
67890;DHT22;54685;52.082;5.426;2023-04-03T05:19:49;1.80;99.90
67890;DHT22;54685;52.082;5.426;2023-04-03T05:22:21;1.80;99.90
67890;DHT22;54685;52.082;5.426;2023-04-03T05:24:50;1.80;99.90
67890;DHT22;54685;52.082;5.426;2023-04-03T05:27:18;1.80;99.90
67890;DHT22;54685;52.082;5.426;2023-04-03T05:29:52;1.80;99.90
67890;DHT22;54685;52.082;5.426;2023-04-03T05:32:22;1.80;99.90
67890;DHT22;54685;52.082;5.426;2023-04-03T05:34:55;1.80;99.90
67890;DHT22;54685;52.082;5.426;2023-04-03T05:37:23;1.80;99.90
67890;DHT22;54685;52.082;5.426;2023-04-03T05:39:52;1.80;99.90
67890;DHT22;54685;52.082;5.426;2023-04-03T05:42:19;1.80;99.90
67890;DHT22;54685;52.082;5.426;2023-04-03T05:44:46;1.80;99.90
67890;DHT22;54685;52.082;5.426;2023-04-03T05:47:14;1.80;99.90
67890;DHT22;54685;52.082;5.426;2023-04-03T05:49:43;1.80;99.90
67890;DHT22;54685;52.082;5.426;2023-04-03T05:52:26;1.90;99.90
67890;DHT22;54685;52.082;5.426;2023-04-03T05:54:54;1.90;99.90
67890;DHT22;54685;52.082;5.426;2023-04-03T05:57:25;1.90;99.90
67890;DHT22;54685;52.082;5.426;2023-04-03T05:59:52;1.90;99.90
67890;DHT22;54685;52.082;5.426;2023-04-03T06:02:22;1.90;99.90
67890;DHT22;54685;52.082;5.426;2023-04-03T06:04:50;1.90;99.90
67890;DHT22;54685;52.082;5.426;2023-04-03T06:07:21;2.00;99.90
67890;DHT22;54685;52.082;5.426;2023-04-03T06:09:50;1.90;99.90
67890;DHT22;54685;52.082;5.426;2023-04-03T06:12:18;2.00;99.90
67890;DHT22;54685;52.082;5.426;2023-04-03T06:14:45;2.00;99.90
67890;DHT22;54685;52.082;5.426;2023-04-03T06:17:14;1.90;99.90
67890;DHT22;54685;52.082;5.426;2023-04-03T06:19:42;1.90;99.90
67890;DHT22;54685;52.082;5.426;2023-04-03T06:22:11;2.00;99.90
67890;DHT22;54685;52.082;5.426;2023-04-03T06:24:38;2.10;99.90
67890;DHT22;54685;52.082;5.426;2023-04-03T06:27:09;2.10;99.90
67890;DHT22;54685;52.082;5.426;2023-04-03T06:29:37;2.20;99.90
67890;DHT22;54685;52.082;5.426;2023-04-03T06:32:04;2.10;99.90
67890;DHT22;54685;52.082;5.426;2023-04-03T06:34:31;2.20;99.90
67890;DHT22;54685;52.082;5.426;2023-04-03T06:36:59;2.20;99.90
67890;DHT22;54685;52.082;5.426;2023-04-03T06:39:26;2.30;99.90
67890;DHT22;54685;52.082;5.426;2023-04-03T06:41:56;2.30;99.90
67890;DHT22;54685;52.082;5.426;2023-04-03T06:44:34;2.30;99.90
67890;DHT22;54685;52.082;5.426;2023-04-03T06:47:01;2.30;99.90
67890;DHT22;54685;52.082;5.426;2023-04-03T06:49:28;2.30;99.90
67890;DHT22;54685;52.082;5.426;2023-04-03T06:51:55;2.40;99.90
67890;DHT22;54685;52.082;5.426;2023-04-03T06:54:25;2.40;99.90
67890;DHT22;54685;52.082;5.426;2023-04-03T06:56:53;2.40;99.90
67890;DHT22;54685;52.082;5.426;2023-04-03T06:59:20;2.50;99.90
67890;DHT22;54685;52.082;5.426;2023-04-03T07:01:47;2.50;99.90
67890;DHT22;54685;52.082;5.426;2023-04-03T07:04:14;2.50;99.90
67890;DHT22;54685;52.082;5.426;2023-04-03T07:06:44;2.60;99.90
67890;DHT22;54685;52.082;5.426;2023-04-03T07:09:11;2.70;99.90
67890;DHT22;54685;52.082;5.426;2023-04-03T07:11:38;2.70;99.90
67890;DHT22;54685;52.082;5.426;2023-04-03T07:14:05;2.70;99.90
67890;DHT22;54685;52.082;5.426;2023-04-03T07:16:34;2.70;99.90
67890;DHT22;54685;52.082;5.426;2023-04-03T07:19:02;2.80;99.90
67890;DHT22;54685;52.082;5.426;2023-04-03T07:21:29;2.90;99.90
67890;DHT22;54685;52.082;5.426;2023-04-03T07:23:56;2.90;99.90
67890;DHT22;54685;52.082;5.426;2023-04-03T07:26:23;2.90;99.90
67890;DHT22;54685;52.082;5.426;2023-04-03T07:28:50;2.90;99.90
67890;DHT22;54685;52.082;5.426;2023-04-03T07:31:17;2.90;99.90
67890;DHT22;54685;52.082;5.426;2023-04-03T07:33:45;2.90;99.90
67890;DHT22;54685;52.082;5.426;2023-04-03T07:36:16;3.10;99.90
67890;DHT22;54685;52.082;5.426;2023-04-03T07:38:43;3.10;99.90
67890;DHT22;54685;52.082;5.426;2023-04-03T07:41:16;3.10;99.90
67890;DHT22;54685;52.082;5.426;2023-04-03T07:43:44;3.20;99.90
67890;DHT22;54685;52.082;5.426;2023-04-03T07:46:11;3.30;99.90
67890;DHT22;54685;52.082;5.426;2023-04-03T07:48:38;3.30;99.90
67890;DHT22;54685;52.082;5.426;2023-04-03T07:51:05;3.40;99.90
67890;DHT22;54685;52.082;5.426;2023-04-03T07:53:32;3.50;99.90
67890;DHT22;54685;52.082;5.426;2023-04-03T07:56:02;3.60;99.90
67890;DHT22;54685;52.082;5.426;2023-04-03T07:58:29;3.70;99.90
67890;DHT22;54685;52.082;5.426;2023-04-03T08:00:56;3.70;99.90
67890;DHT22;54685;52.082;5.426;2023-04-03T08:03:24;3.80;99.90
67890;DHT22;54685;52.082;5.426;2023-04-03T08:05:51;3.80;99.90
67890;DHT22;54685;52.082;5.426;2023-04-03T08:08:21;4.00;99.90
67890;DHT22;54685;52.082;5.426;2023-04-03T08:10:52;4.00;99.90
67890;DHT22;54685;52.082;5.426;2023-04-03T08:13:20;4.00;99.90
67890;DHT22;54685;52.082;5.426;2023-04-03T08:15:47;4.10;99.90
67890;DHT22;54685;52.082;5.426;2023-04-03T08:18:15;4.20;99.90
67890;DHT22;54685;52.082;5.426;2023-04-03T08:20:43;4.30;99.90
67890;DHT22;54685;52.082;5.426;2023-04-03T08:23:10;4.40;99.90
67890;DHT22;54685;52.082;5.426;2023-04-03T08:25:41;4.40;99.90
67890;DHT22;54685;52.082;5.426;2023-04-03T08:28:09;4.50;99.90
67890;DHT22;54685;52.082;5.426;2023-04-03T08:30:38;4.60;99.90
67890;DHT22;54685;52.082;5.426;2023-04-03T08:33:05;4.70;99.90
67890;DHT22;54685;52.082;5.426;2023-04-03T08:35:37;4.80;99.90
67890;DHT22;54685;52.082;5.426;2023-04-03T08:38:05;4.90;99.90
67890;DHT22;54685;52.082;5.426;2023-04-03T08:40:32;5.00;99.90
67890;DHT22;54685;52.082;5.426;2023-04-03T08:45:55;5.20;99.90
67890;DHT22;54685;52.082;5.426;2023-04-03T08:48:29;5.20;99.90
67890;DHT22;54685;52.082;5.426;2023-04-03T08:51:00;5.30;99.90
67890;DHT22;54685;52.082;5.426;2023-04-03T08:53:34;5.40;99.90
67890;DHT22;54685;52.082;5.426;2023-04-03T08:56:07;5.50;99.90
67890;DHT22;54685;52.082;5.426;2023-04-03T08:58:56;5.70;99.90
67890;DHT22;54685;52.082;5.426;2023-04-03T09:01:27;5.80;99.90
67890;DHT22;54685;52.082;5.426;2023-04-03T09:03:56;5.90;96.40
67890;DHT22;54685;52.082;5.426;2023-04-03T09:06:31;6.00;93.20
67890;DHT22;54685;52.082;5.426;2023-04-03T09:09:15;6.10;79.20
67890;DHT22;54685;52.082;5.426;2023-04-03T09:12:19;6.30;75.40
67890;DHT22;54685;52.082;5.426;2023-04-03T09:15:07;6.40;66.20
67890;DHT22;54685;52.082;5.426;2023-04-03T09:18:04;6.50;60.30
67890;DHT22;54685;52.082;5.426;2023-04-03T09:20:57;6.60;64.10
67890;DHT22;54685;52.082;5.426;2023-04-03T09:23:34;6.80;60.70
67890;DHT22;54685;52.082;5.426;2023-04-03T09:26:09;6.90;57.20
67890;DHT22;54685;52.082;5.426;2023-04-03T09:28:40;7.00;62.90
67890;DHT22;54685;52.082;5.426;2023-04-03T09:31:23;7.20;59.60
67890;DHT22;54685;52.082;5.426;2023-04-03T09:33:54;7.40;58.20
67890;DHT22;54685;52.082;5.426;2023-04-03T09:36:44;7.50;56.40
67890;DHT22;54685;52.082;5.426;2023-04-03T09:39:25;7.90;59.80
67890;DHT22;54685;52.082;5.426;2023-04-03T09:42:02;8.40;52.20
67890;DHT22;54685;52.082;5.426;2023-04-03T09:44:36;8.80;58.60
67890;DHT22;54685;52.082;5.426;2023-04-03T09:47:32;9.20;51.20
67890;DHT22;54685;52.082;5.426;2023-04-03T09:52:40;9.90;51.50
67890;DHT22;54685;52.082;5.426;2023-04-03T09:57:41;10.50;49.80
67890;DHT22;54685;52.082;5.426;2023-04-03T10:00:27;10.80;48.50
67890;DHT22;54685;52.082;5.426;2023-04-03T10:02:55;11.20;46.80
67890;DHT22;54685;52.082;5.426;2023-04-03T10:08:28;11.70;45.20
67890;DHT22;54685;52.082;5.426;2023-04-03T10:11:13;12.00;42.30
67890;DHT22;54685;52.082;5.426;2023-04-03T10:13:51;12.10;44.80
67890;DHT22;54685;52.082;5.426;2023-04-03T10:16:38;12.40;45.10
67890;DHT22;54685;52.082;5.426;2023-04-03T10:22:16;12.70;37.80
67890;DHT22;54685;52.082;5.426;2023-04-03T10:30:28;13.30;39.80
67890;DHT22;54685;52.082;5.426;2023-04-03T10:35:44;13.70;40.80
67890;DHT22;54685;52.082;5.426;2023-04-03T10:38:23;13.90;39.70
67890;DHT22;54685;52.082;5.426;2023-04-03T10:41:21;14.00;38.50
67890;DHT22;54685;52.082;5.426;2023-04-03T10:44:03;14.30;40.20
67890;DHT22;54685;52.082;5.426;2023-04-03T10:46:45;14.40;38.60
67890;DHT22;54685;52.082;5.426;2023-04-03T10:52:03;14.50;36.20
67890;DHT22;54685;52.082;5.426;2023-04-03T10:54:40;14.70;35.60
67890;DHT22;54685;52.082;5.426;2023-04-03T10:57:10;14.70;37.70
67890;DHT22;54685;52.082;5.426;2023-04-03T10:59:53;14.90;40.60
67890;DHT22;54685;52.082;5.426;2023-04-03T11:05:30;15.40;39.60
67890;DHT22;54685;52.082;5.426;2023-04-03T11:08:04;15.40;37.00
67890;DHT22;54685;52.082;5.426;2023-04-03T11:13:12;15.50;36.60
67890;DHT22;54685;52.082;5.426;2023-04-03T11:15:40;15.50;35.70
67890;DHT22;54685;52.082;5.426;2023-04-03T11:18:15;15.50;37.10
67890;DHT22;54685;52.082;5.426;2023-04-03T11:20:53;15.40;38.20
67890;DHT22;54685;52.082;5.426;2023-04-03T11:23:34;15.60;39.00
67890;DHT22;54685;52.082;5.426;2023-04-03T11:26:18;15.60;36.10
67890;DHT22;54685;52.082;5.426;2023-04-03T11:28:59;16.00;40.00
67890;DHT22;54685;52.082;5.426;2023-04-03T11:31:39;16.10;36.80
67890;DHT22;54685;52.082;5.426;2023-04-03T11:34:26;16.30;36.20
67890;DHT22;54685;52.082;5.426;2023-04-03T11:36:59;16.30;35.10
67890;DHT22;54685;52.082;5.426;2023-04-03T11:39:32;16.50;36.90
67890;DHT22;54685;52.082;5.426;2023-04-03T11:42:22;16.90;39.40
67890;DHT22;54685;52.082;5.426;2023-04-03T11:45:23;16.90;36.70
67890;DHT22;54685;52.082;5.426;2023-04-03T11:51:00;16.90;33.30
67890;DHT22;54685;52.082;5.426;2023-04-03T11:53:34;16.90;36.70
67890;DHT22;54685;52.082;5.426;2023-04-03T11:56:27;16.90;34.00
67890;DHT22;54685;52.082;5.426;2023-04-03T12:01:56;17.40;36.50
67890;DHT22;54685;52.082;5.426;2023-04-03T12:04:26;17.50;35.30
67890;DHT22;54685;52.082;5.426;2023-04-03T12:07:16;17.60;33.40
67890;DHT22;54685;52.082;5.426;2023-04-03T12:15:18;17.40;35.10
67890;DHT22;54685;52.082;5.426;2023-04-03T12:17:46;17.50;33.00
67890;DHT22;54685;52.082;5.426;2023-04-03T12:25:51;18.00;34.30
67890;DHT22;54685;52.082;5.426;2023-04-03T12:28:18;18.10;33.50
67890;DHT22;54685;52.082;5.426;2023-04-03T12:30:45;18.20;32.20
67890;DHT22;54685;52.082;5.426;2023-04-03T12:33:36;18.20;33.70
67890;DHT22;54685;52.082;5.426;2023-04-03T12:36:18;18.30;33.20
67890;DHT22;54685;52.082;5.426;2023-04-03T12:39:14;18.10;33.60
67890;DHT22;54685;52.082;5.426;2023-04-03T12:42:30;18.00;31.90
67890;DHT22;54685;52.082;5.426;2023-04-03T12:44:50;18.00;34.60
67890;DHT22;54685;52.082;5.426;2023-04-03T12:47:33;18.40;36.70
67890;DHT22;54685;52.082;5.426;2023-04-03T12:50:04;18.40;32.20
67890;DHT22;54685;52.082;5.426;2023-04-03T12:52:41;18.30;32.40
67890;DHT22;54685;52.082;5.426;2023-04-03T12:55:19;18.30;32.90
67890;DHT22;54685;52.082;5.426;2023-04-03T12:57:46;17.90;33.50
67890;DHT22;54685;52.082;5.426;2023-04-03T13:00:34;17.70;32.20
67890;DHT22;54685;52.082;5.426;2023-04-03T13:03:03;17.70;32.30
67890;DHT22;54685;52.082;5.426;2023-04-03T13:05:32;18.00;32.00
67890;DHT22;54685;52.082;5.426;2023-04-03T13:08:05;17.90;32.30
67890;DHT22;54685;52.082;5.426;2023-04-03T13:10:49;18.10;34.00
67890;DHT22;54685;52.082;5.426;2023-04-03T13:13:22;18.60;33.30
67890;DHT22;54685;52.082;5.426;2023-04-03T13:15:50;18.80;34.20
67890;DHT22;54685;52.082;5.426;2023-04-03T13:18:36;18.80;32.90
67890;DHT22;54685;52.082;5.426;2023-04-03T13:21:13;19.10;33.30
67890;DHT22;54685;52.082;5.426;2023-04-03T13:23:46;18.60;31.10
67890;DHT22;54685;52.082;5.426;2023-04-03T13:26:17;18.60;32.60
67890;DHT22;54685;52.082;5.426;2023-04-03T13:28:45;18.40;30.70
67890;DHT22;54685;52.082;5.426;2023-04-03T13:36:32;18.00;32.20
67890;DHT22;54685;52.082;5.426;2023-04-03T13:41:38;17.70;33.60
67890;DHT22;54685;52.082;5.426;2023-04-03T13:49:58;17.30;32.90
67890;DHT22;54685;52.082;5.426;2023-04-03T13:52:41;16.80;33.70
67890;DHT22;54685;52.082;5.426;2023-04-03T13:55:31;16.70;35.90
67890;DHT22;54685;52.082;5.426;2023-04-03T13:58:25;16.40;34.60
67890;DHT22;54685;52.082;5.426;2023-04-03T14:00:54;16.00;33.50
67890;DHT22;54685;52.082;5.426;2023-04-03T14:03:43;15.80;34.20
67890;DHT22;54685;52.082;5.426;2023-04-03T14:06:14;15.90;33.40
67890;DHT22;54685;52.082;5.426;2023-04-03T14:08:43;15.90;34.70
67890;DHT22;54685;52.082;5.426;2023-04-03T14:13:43;15.80;34.70
67890;DHT22;54685;52.082;5.426;2023-04-03T14:16:15;16.30;34.90
67890;DHT22;54685;52.082;5.426;2023-04-03T14:18:45;17.00;35.20
67890;DHT22;54685;52.082;5.426;2023-04-03T14:21:14;17.40;34.30
67890;DHT22;54685;52.082;5.426;2023-04-03T14:23:41;17.80;32.80
67890;DHT22;54685;52.082;5.426;2023-04-03T14:26:20;17.70;32.60
67890;DHT22;54685;52.082;5.426;2023-04-03T14:28:50;18.00;31.20
67890;DHT22;54685;52.082;5.426;2023-04-03T14:31:18;17.70;31.70
67890;DHT22;54685;52.082;5.426;2023-04-03T14:33:46;17.80;32.30
67890;DHT22;54685;52.082;5.426;2023-04-03T14:36:18;17.90;32.50
67890;DHT22;54685;52.082;5.426;2023-04-03T14:38:46;18.10;31.80
67890;DHT22;54685;52.082;5.426;2023-04-03T14:41:15;18.70;33.10
67890;DHT22;54685;52.082;5.426;2023-04-03T14:43:44;18.40;31.00
67890;DHT22;54685;52.082;5.426;2023-04-03T14:46:31;18.80;30.10
67890;DHT22;54685;52.082;5.426;2023-04-03T14:49:22;18.50;31.20
67890;DHT22;54685;52.082;5.426;2023-04-03T14:51:49;18.80;33.30
67890;DHT22;54685;52.082;5.426;2023-04-03T14:54:21;18.40;32.00
67890;DHT22;54685;52.082;5.426;2023-04-03T14:56:58;18.40;33.30
67890;DHT22;54685;52.082;5.426;2023-04-03T14:59:26;17.80;33.20
67890;DHT22;54685;52.082;5.426;2023-04-03T15:01:53;17.30;33.60
67890;DHT22;54685;52.082;5.426;2023-04-03T15:04:20;17.00;35.60
67890;DHT22;54685;52.082;5.426;2023-04-03T15:06:48;16.40;36.40
67890;DHT22;54685;52.082;5.426;2023-04-03T15:09:25;16.10;36.40
67890;DHT22;54685;52.082;5.426;2023-04-03T15:11:53;16.00;37.90
67890;DHT22;54685;52.082;5.426;2023-04-03T15:14:20;15.30;36.80
67890;DHT22;54685;52.082;5.426;2023-04-03T15:17:06;14.80;37.90
67890;DHT22;54685;52.082;5.426;2023-04-03T15:19:37;14.30;38.50
67890;DHT22;54685;52.082;5.426;2023-04-03T15:22:04;13.90;38.10
67890;DHT22;54685;52.082;5.426;2023-04-03T15:24:31;13.70;39.90
67890;DHT22;54685;52.082;5.426;2023-04-03T15:26:59;13.60;39.70
67890;DHT22;54685;52.082;5.426;2023-04-03T15:29:27;13.60;41.40
67890;DHT22;54685;52.082;5.426;2023-04-03T15:31:54;13.40;41.40
67890;DHT22;54685;52.082;5.426;2023-04-03T15:34:21;13.30;42.10
67890;DHT22;54685;52.082;5.426;2023-04-03T15:36:49;13.20;40.00
67890;DHT22;54685;52.082;5.426;2023-04-03T15:39:19;13.10;42.50
67890;DHT22;54685;52.082;5.426;2023-04-03T15:41:47;12.90;40.90
67890;DHT22;54685;52.082;5.426;2023-04-03T15:44:14;12.90;43.10
67890;DHT22;54685;52.082;5.426;2023-04-03T15:46:45;12.80;41.60
67890;DHT22;54685;52.082;5.426;2023-04-03T15:49:12;12.60;42.40
67890;DHT22;54685;52.082;5.426;2023-04-03T15:51:39;12.70;43.90
67890;DHT22;54685;52.082;5.426;2023-04-03T15:54:06;12.60;44.10
67890;DHT22;54685;52.082;5.426;2023-04-03T15:56:33;12.50;42.80
67890;DHT22;54685;52.082;5.426;2023-04-03T15:59:00;12.50;44.90
67890;DHT22;54685;52.082;5.426;2023-04-03T16:01:26;12.40;44.60
67890;DHT22;54685;52.082;5.426;2023-04-03T16:03:58;12.20;43.30
67890;DHT22;54685;52.082;5.426;2023-04-03T16:06:25;12.00;43.20
67890;DHT22;54685;52.082;5.426;2023-04-03T16:08:57;11.90;42.70
67890;DHT22;54685;52.082;5.426;2023-04-03T16:11:25;11.90;43.30
67890;DHT22;54685;52.082;5.426;2023-04-03T16:13:53;11.90;44.00
67890;DHT22;54685;52.082;5.426;2023-04-03T16:16:20;11.90;43.20
67890;DHT22;54685;52.082;5.426;2023-04-03T16:18:47;11.80;44.50
67890;DHT22;54685;52.082;5.426;2023-04-03T16:21:15;11.60;44.30
67890;DHT22;54685;52.082;5.426;2023-04-03T16:23:44;11.60;44.00
67890;DHT22;54685;52.082;5.426;2023-04-03T16:26:11;11.50;45.60
67890;DHT22;54685;52.082;5.426;2023-04-03T16:28:38;11.40;44.40
67890;DHT22;54685;52.082;5.426;2023-04-03T16:31:07;11.30;45.10
67890;DHT22;54685;52.082;5.426;2023-04-03T16:33:34;11.20;44.50
67890;DHT22;54685;52.082;5.426;2023-04-03T16:36:01;11.20;45.60
67890;DHT22;54685;52.082;5.426;2023-04-03T16:38:28;11.10;44.90
67890;DHT22;54685;52.082;5.426;2023-04-03T16:40:56;11.00;45.20
67890;DHT22;54685;52.082;5.426;2023-04-03T16:43:26;11.10;48.50
67890;DHT22;54685;52.082;5.426;2023-04-03T16:45:53;11.00;46.10
67890;DHT22;54685;52.082;5.426;2023-04-03T16:48:20;10.80;46.30
67890;DHT22;54685;52.082;5.426;2023-04-03T16:50:48;11.00;50.30
67890;DHT22;54685;52.082;5.426;2023-04-03T16:53:15;10.90;47.40
67890;DHT22;54685;52.082;5.426;2023-04-03T16:55:42;10.90;47.90
67890;DHT22;54685;52.082;5.426;2023-04-03T16:58:12;10.80;45.50
67890;DHT22;54685;52.082;5.426;2023-04-03T17:00:40;10.80;47.90
67890;DHT22;54685;52.082;5.426;2023-04-03T17:03:26;10.70;46.90
67890;DHT22;54685;52.082;5.426;2023-04-03T17:05:56;10.70;48.60
67890;DHT22;54685;52.082;5.426;2023-04-03T17:08:33;10.70;48.60
67890;DHT22;54685;52.082;5.426;2023-04-03T17:11:01;10.60;48.70
67890;DHT22;54685;52.082;5.426;2023-04-03T17:13:28;10.50;49.00
67890;DHT22;54685;52.082;5.426;2023-04-03T17:16:00;10.40;49.10
67890;DHT22;54685;52.082;5.426;2023-04-03T17:18:29;10.40;49.80
67890;DHT22;54685;52.082;5.426;2023-04-03T17:20:57;10.30;49.30